Time,TemperatureF,DewpointF,PressureIn,WindDirection,WindDirectionDegrees,WindSpeedMPH,WindSpeedGustMPH,Humidity,HourlyPrecipIn,Conditions,Clouds,dailyrainin,SoftwareType,DateUTC
2013-12-03 00:02:00,71.3,62.6,29.99,WNW,297,5.0,8.0,74,0.00,,,0.00,Weather View 32 v70,2013-12-03 10:02:00,
2013-12-03 00:10:00,71.4,62.7,29.99,WNW,285,5.0,8.0,74,0.00,,,0.00,Weather View 32 v70,2013-12-03 10:10:00,
2013-12-03 00:15:00,71.6,63.2,29.98,NW,311,7.0,9.0,75,0.00,,,0.00,Weather View 32 v70,2013-12-03 10:15:00,
2013-12-03 00:20:00,72.3,64.7,29.98,NW,320,7.0,12.0,77,0.00,,,0.00,Weather View 32 v70,2013-12-03 10:20:00,
2013-12-03 00:30:00,72.5,64.9,29.98,NW,323,6.0,12.0,77,0.00,,,0.00,Weather View 32 v70,2013-12-03 10:30:00,
2013-12-03 00:35:00,72.4,64.8,29.98,WNW,299,4.0,12.0,77,0.00,,,0.00,Weather View 32 v70,2013-12-03 10:35:00,
2013-12-03 00:40:00,72.2,64.6,29.97,NNW,336,2.0,12.0,77,0.00,,,0.00,Weather View 32 v70,2013-12-03 10:40:00,
2013-12-03 00:45:00,72.2,64.6,29.97,NNW,336,0.0,12.0,77,0.00,,,0.00,Weather View 32 v70,2013-12-03 10:45:00,
2013-12-03 00:50:00,72.1,64.5,29.98,SE,127,2.0,12.0,77,0.00,,,0.00,Weather View 32 v70,2013-12-03 10:50:00,
2013-12-03 01:00:00,71.7,64.4,29.98,South,183,0.0,12.0,78,0.00,,,0.00,Weather View 32 v70,2013-12-03 11:00:00,
2013-12-03 01:05:00,71.3,63.7,29.98,SSE,150,0.0,12.0,77,0.00,,,0.00,Weather View 32 v70,2013-12-03 11:05:00,
2013-12-03 01:10:00,71.1,63.5,29.98,SSE,151,0.0,12.0,77,0.00,,,0.00,Weather View 32 v70,2013-12-03 11:10:00,
2013-12-03 01:15:00,71.0,63.4,29.98,SSE,151,0.0,12.0,77,0.00,,,0.00,Weather View 32 v70,2013-12-03 11:15:00,
2013-12-03 01:25:00,71.4,64.2,29.97,South,186,1.0,10.0,78,0.00,,,0.00,Weather View 32 v70,2013-12-03 11:25:00,
2013-12-03 01:30:00,71.4,64.2,29.98,South,186,0.0,7.0,78,0.00,,,0.00,Weather View 32 v70,2013-12-03 11:30:00,
2013-12-03 01:35:00,71.4,64.2,29.98,WNW,293,2.0,5.0,78,0.00,,,0.00,Weather View 32 v70,2013-12-03 11:35:00,
2013-12-03 01:40:00,71.1,63.9,29.98,WNW,293,6.0,7.0,78,0.00,,,0.00,Weather View 32 v70,2013-12-03 11:40:00,
2013-12-03 01:50:00,70.8,63.6,29.97,WNW,293,3.0,7.0,78,0.00,,,0.00,Weather View 32 v70,2013-12-03 11:50:00,
2013-12-03 01:55:00,70.8,63.2,29.97,NW,316,3.0,7.0,77,0.00,,,0.00,Weather View 32 v70,2013-12-03 11:55:00,
2013-12-03 02:00:00,70.9,63.3,29.97,NW,307,6.0,8.0,77,0.00,,,0.00,Weather View 32 v70,2013-12-03 12:00:00,
2013-12-03 02:05:00,71.2,64.0,29.97,NW,307,6.0,8.0,78,0.00,,,0.00,Weather View 32 v70,2013-12-03 12:05:00,
2013-12-03 02:15:00,71.7,65.2,29.96,NW,318,3.0,8.0,80,0.00,,,0.00,Weather View 32 v70,2013-12-03 12:15:00,
2013-12-03 02:20:00,71.5,64.6,29.96,WNW,296,4.0,8.0,79,0.00,,,0.00,Weather View 32 v70,2013-12-03 12:20:00,
2013-12-03 02:25:00,71.4,64.5,29.96,WNW,289,5.0,8.0,79,0.00,,,0.00,Weather View 32 v70,2013-12-03 12:25:00,
2013-12-03 02:30:00,71.2,64.7,29.96,West,274,3.0,8.0,80,0.00,,,0.00,Weather View 32 v70,2013-12-03 12:30:00,
2013-12-03 02:40:00,71.2,65.0,29.96,West,274,0.0,8.0,81,0.00,,,0.00,Weather View 32 v70,2013-12-03 12:40:00,
2013-12-03 02:45:00,71.2,65.0,29.96,West,274,0.0,8.0,81,0.00,,,0.00,Weather View 32 v70,2013-12-03 12:45:00,
2013-12-03 02:50:00,71.1,64.9,29.96,SSW,194,3.0,8.0,81,0.00,,,0.00,Weather View 32 v70,2013-12-03 12:50:00,
2013-12-03 02:55:00,71.1,64.9,29.96,SW,224,2.0,8.0,81,0.00,,,0.00,Weather View 32 v70,2013-12-03 12:55:00,
2013-12-03 03:00:00,71.2,65.0,29.96,SW,224,3.0,8.0,81,0.00,,,0.00,Weather View 32 v70,2013-12-03 13:00:00,
2013-12-03 03:10:00,71.1,64.6,29.96,West,260,5.0,7.0,80,0.00,,,0.00,Weather View 32 v70,2013-12-03 13:10:00,
2013-12-03 03:15:00,71.2,64.7,29.96,West,264,6.0,6.0,80,0.00,,,0.00,Weather View 32 v70,2013-12-03 13:15:00,
2013-12-03 03:19:00,71.3,64.4,29.96,SW,236,4.0,7.0,79,0.00,,,0.00,Weather View 32 v70,2013-12-03 13:19:00,
2013-12-03 09:37:00,74.1,65.6,29.98,ESE,114,5.0,5.0,75,0.00,,,0.00,Weather View 32 v70,2013-12-03 19:37:00,
2013-12-03 09:40:00,74.2,65.3,29.98,ESE,104,5.0,8.0,74,0.00,,,0.00,Weather View 32 v70,2013-12-03 19:40:00,
2013-12-03 09:42:00,74.3,65.8,29.98,SSE,156,5.0,9.0,75,0.00,,,0.00,Weather View 32 v70,2013-12-03 19:42:00,
2013-12-03 09:45:00,74.3,65.8,29.98,ESE,105,5.0,9.0,75,0.00,,,0.00,Weather View 32 v70,2013-12-03 19:45:00,
2013-12-03 09:47:00,74.4,65.9,29.98,East,98,4.0,9.0,75,0.00,,,0.00,Weather View 32 v70,2013-12-03 19:47:00,
2013-12-03 09:50:00,74.4,65.9,29.98,ENE,66,4.0,9.0,75,0.00,,,0.00,Weather View 32 v70,2013-12-03 19:50:00,
2013-12-03 09:52:00,74.7,66.6,29.98,ESE,117,4.0,9.0,76,0.00,,,0.00,Weather View 32 v70,2013-12-03 19:52:00,
2013-12-03 09:58:00,74.9,66.0,29.98,NE,47,3.0,9.0,74,0.00,,,0.00,Weather View 32 v70,2013-12-03 19:58:00,
2013-12-03 10:03:00,75.1,65.8,29.99,East,94,1.0,9.0,73,0.00,,,0.00,Weather View 32 v70,2013-12-03 20:03:00,
2013-12-03 10:05:00,75.2,65.9,29.98,East,91,1.0,9.0,73,0.00,,,0.00,Weather View 32 v70,2013-12-03 20:05:00,
2013-12-03 10:09:00,75.0,65.3,29.98,NE,52,2.0,9.0,72,0.00,,,0.00,Weather View 32 v70,2013-12-03 20:09:00,
2013-12-03 10:10:00,74.8,65.1,29.98,NE,52,0.0,9.0,72,0.00,,,0.00,Weather View 32 v70,2013-12-03 20:10:00,
2013-12-03 10:15:00,75.1,66.2,29.98,ESE,114,2.0,9.0,74,0.00,,,0.00,Weather View 32 v70,2013-12-03 20:15:00,
2013-12-03 10:16:00,75.2,66.3,29.98,ESE,112,3.0,9.0,74,0.00,,,0.00,Weather View 32 v70,2013-12-03 20:16:00,
2013-12-03 10:23:00,75.7,66.4,29.98,ENE,66,4.0,9.0,73,0.00,,,0.00,Weather View 32 v70,2013-12-03 20:23:00,
2013-12-03 10:28:00,75.1,65.8,29.98,ENE,59,3.0,9.0,73,0.00,,,0.00,Weather View 32 v70,2013-12-03 20:28:00,
2013-12-03 10:33:00,74.8,65.9,29.98,ENE,60,6.0,9.0,74,0.00,,,0.00,Weather View 32 v70,2013-12-03 20:33:00,
2013-12-03 10:35:00,74.8,65.5,29.98,ENE,65,2.0,9.0,73,0.00,,,0.00,Weather View 32 v70,2013-12-03 20:35:00,
2013-12-03 10:39:00,74.9,66.0,29.98,North,358,6.0,9.0,74,0.00,,,0.00,Weather View 32 v70,2013-12-03 20:39:00,
2013-12-03 10:40:00,74.8,65.5,29.98,North,355,2.0,9.0,73,0.00,,,0.00,Weather View 32 v70,2013-12-03 20:40:00,
2013-12-03 10:45:00,74.6,65.3,29.98,ENE,71,4.0,8.0,73,0.00,,,0.00,Weather View 32 v70,2013-12-03 20:45:00,
2013-12-03 10:50:00,74.7,65.8,29.98,East,85,3.0,10.0,74,0.00,,,0.00,Weather View 32 v70,2013-12-03 20:50:00,
2013-12-03 10:51:00,74.8,66.3,29.98,East,89,4.0,10.0,75,0.00,,,0.00,Weather View 32 v70,2013-12-03 20:51:00,
2013-12-03 10:55:00,75.1,65.8,29.97,NNE,21,6.0,10.0,73,0.00,,,0.00,Weather View 32 v70,2013-12-03 20:55:00,
2013-12-03 10:56:00,74.9,65.6,29.98,South,180,2.0,10.0,73,0.00,,,0.00,Weather View 32 v70,2013-12-03 20:56:00,
2013-12-03 11:00:00,75.4,66.9,29.97,ENE,70,8.0,10.0,75,0.00,,,0.00,Weather View 32 v70,2013-12-03 21:00:00,
2013-12-03 11:03:00,75.7,65.6,29.97,NNE,22,6.0,11.0,71,0.00,,,0.00,Weather View 32 v70,2013-12-03 21:03:00,
2013-12-03 11:05:00,75.4,65.3,29.97,NE,43,8.0,11.0,71,0.00,,,0.00,Weather View 32 v70,2013-12-03 21:05:00,
2013-12-03 11:09:00,75.0,64.9,29.97,NNE,33,7.0,11.0,71,0.00,,,0.00,Weather View 32 v70,2013-12-03 21:09:00,
2013-12-03 11:15:00,74.7,64.2,29.97,NE,37,12.0,12.0,70,0.00,,,0.00,Weather View 32 v70,2013-12-03 21:15:00,
2013-12-03 11:20:00,74.3,64.3,29.96,NNE,30,10.0,16.0,71,0.00,,,0.00,Weather View 32 v70,2013-12-03 21:20:00,
2013-12-03 11:25:00,73.8,63.8,29.97,NE,51,6.0,16.0,71,0.00,,,0.00,Weather View 32 v70,2013-12-03 21:25:00,
2013-12-03 11:30:00,73.8,63.8,29.97,NE,51,6.0,16.0,71,0.00,,,0.00,Weather View 32 v70,2013-12-03 21:30:00,
2013-12-03 11:36:00,74.1,64.1,29.96,NNE,22,8.0,16.0,71,0.00,,,0.00,Weather View 32 v70,2013-12-03 21:36:00,
2013-12-03 11:41:00,74.2,63.3,29.96,NNE,33,6.0,16.0,69,0.00,,,0.00,Weather View 32 v70,2013-12-03 21:41:00,
2013-12-03 11:45:00,74.3,63.8,29.96,North,4,1.0,16.0,70,0.00,,,0.00,Weather View 32 v70,2013-12-03 21:45:00,
2013-12-03 11:46:00,74.4,64.3,29.96,NNE,14,10.0,16.0,71,0.00,,,0.00,Weather View 32 v70,2013-12-03 21:46:00,
2013-12-03 11:50:00,74.7,64.2,29.95,NE,34,7.0,16.0,70,0.00,,,0.00,Weather View 32 v70,2013-12-03 21:50:00,
2013-12-03 11:53:00,74.8,64.3,29.95,ENE,68,5.0,16.0,70,0.00,,,0.00,Weather View 32 v70,2013-12-03 21:53:00,
2013-12-03 11:55:00,74.9,64.4,29.95,ENE,62,5.0,16.0,70,0.00,,,0.00,Weather View 32 v70,2013-12-03 21:55:00,
2013-12-03 11:59:00,74.9,64.4,29.95,NE,34,9.0,16.0,70,0.00,,,0.00,Weather View 32 v70,2013-12-03 21:59:00,
2013-12-03 12:00:00,74.8,64.3,29.95,NE,37,8.0,16.0,70,0.00,,,0.00,Weather View 32 v70,2013-12-03 22:00:00,
2013-12-03 12:04:00,74.5,64.4,29.94,NE,41,5.0,16.0,71,0.00,,,0.00,Weather View 32 v70,2013-12-03 22:04:00,
2013-12-03 12:10:00,75.1,65.0,29.94,SSE,149,7.0,16.0,71,0.00,,,0.00,Weather View 32 v70,2013-12-03 22:10:00,
2013-12-03 12:15:00,76.5,65.9,29.94,ENE,66,0.0,16.0,70,0.00,,,0.00,Weather View 32 v70,2013-12-03 22:15:00,
2013-12-03 12:22:00,76.3,64.9,29.93,North,1,3.0,12.0,68,0.00,,,0.00,Weather View 32 v70,2013-12-03 22:22:00,
2013-12-03 12:27:00,75.8,64.9,29.93,NNE,28,1.0,12.0,69,0.00,,,0.00,Weather View 32 v70,2013-12-03 22:27:00,
2013-12-03 12:33:00,75.6,64.3,29.92,North,1,9.0,12.0,68,0.00,,,0.00,Weather View 32 v70,2013-12-03 22:33:00,
2013-12-03 12:40:00,75.4,64.1,29.92,NNW,340,3.0,12.0,68,0.00,,,0.00,Weather View 32 v70,2013-12-03 22:40:00,
2013-12-03 12:45:00,75.1,64.2,29.92,NNE,20,8.0,12.0,69,0.00,,,0.00,Weather View 32 v70,2013-12-03 22:45:00,
2013-12-03 12:50:00,75.4,64.1,29.91,North,9,8.0,13.0,68,0.00,,,0.00,Weather View 32 v70,2013-12-03 22:50:00,
2013-12-03 12:55:00,75.9,64.5,29.91,ENE,61,10.0,13.0,68,0.00,,,0.00,Weather View 32 v70,2013-12-03 22:55:00,
2013-12-03 12:56:00,76.0,64.6,29.91,NE,44,4.0,13.0,68,0.00,,,0.00,Weather View 32 v70,2013-12-03 22:56:00,
2013-12-03 13:00:00,76.4,64.6,29.91,North,357,12.0,14.0,67,0.00,,,0.00,Weather View 32 v70,2013-12-03 23:00:00,
2013-12-03 13:04:00,76.0,64.2,29.91,North,357,11.0,14.0,67,0.00,,,0.00,Weather View 32 v70,2013-12-03 23:04:00,
2013-12-03 13:05:00,75.9,64.1,29.91,North,8,11.0,14.0,67,0.00,,,0.00,Weather View 32 v70,2013-12-03 23:05:00,
2013-12-03 13:10:00,75.7,63.9,29.90,NNW,343,9.0,14.0,67,0.00,,,0.00,Weather View 32 v70,2013-12-03 23:10:00,
2013-12-03 13:15:00,75.7,64.3,29.90,NNE,14,14.0,16.0,68,0.00,,,0.00,Weather View 32 v70,2013-12-03 23:15:00,
2013-12-03 13:21:00,75.7,64.3,29.90,North,11,14.0,16.0,68,0.00,,,0.00,Weather View 32 v70,2013-12-03 23:21:00,
2013-12-03 13:27:00,75.7,64.8,29.90,North,2,13.0,19.0,69,0.00,,,0.00,Weather View 32 v70,2013-12-03 23:27:00,
2013-12-03 13:32:00,75.7,64.8,29.90,NE,36,13.0,19.0,69,0.00,,,0.00,Weather View 32 v70,2013-12-03 23:32:00,
2013-12-03 13:38:00,75.7,63.9,29.90,North,11,11.0,19.0,67,0.00,,,0.00,Weather View 32 v70,2013-12-03 23:38:00,
2013-12-03 13:44:00,75.5,63.3,29.90,NNE,26,6.0,19.0,66,0.00,,,0.00,Weather View 32 v70,2013-12-03 23:44:00,
2013-12-03 13:50:00,75.5,63.7,29.90,NE,43,4.0,19.0,67,0.00,,,0.00,Weather View 32 v70,2013-12-03 23:50:00,
2013-12-03 13:55:00,75.6,63.0,29.89,NNW,343,12.0,19.0,65,0.00,,,0.00,Weather View 32 v70,2013-12-03 23:55:00,
2013-12-03 13:56:00,75.6,63.4,29.89,North,350,7.0,19.0,66,0.00,,,0.00,Weather View 32 v70,2013-12-03 23:56:00,
2013-12-03 14:03:00,75.6,63.4,29.89,North,359,11.0,19.0,66,0.00,,,0.00,Weather View 32 v70,2013-12-04 00:03:00,
2013-12-03 14:08:00,75.9,63.2,29.89,NNE,22,11.0,19.0,65,0.00,,,0.00,Weather View 32 v70,2013-12-04 00:08:00,
2013-12-03 14:15:00,76.0,63.3,29.89,NNW,341,6.0,19.0,65,0.00,,,0.00,Weather View 32 v70,2013-12-04 00:15:00,
2013-12-03 14:20:00,76.1,63.0,29.88,NE,37,10.0,19.0,64,0.00,,,0.00,Weather View 32 v70,2013-12-04 00:20:00,
2013-12-03 14:25:00,75.9,63.2,29.88,NNE,22,11.0,18.0,65,0.00,,,0.00,Weather View 32 v70,2013-12-04 00:25:00,
2013-12-03 14:30:00,75.7,63.1,29.88,NNE,12,6.0,18.0,65,0.00,,,0.00,Weather View 32 v70,2013-12-04 00:30:00,
2013-12-03 14:36:00,75.7,63.5,29.88,NNE,13,14.0,16.0,66,0.00,,,0.00,Weather View 32 v70,2013-12-04 00:36:00,
2013-12-03 14:42:00,75.5,62.9,29.88,North,357,8.0,16.0,65,0.00,,,0.00,Weather View 32 v70,2013-12-04 00:42:00,
2013-12-03 14:45:00,75.6,63.4,29.88,NNE,31,6.0,16.0,66,0.00,,,0.00,Weather View 32 v70,2013-12-04 00:45:00,
2013-12-03 14:48:00,75.5,63.3,29.88,North,356,12.0,16.0,66,0.00,,,0.00,Weather View 32 v70,2013-12-04 00:48:00,
2013-12-03 14:53:00,75.3,63.5,29.88,NNE,20,6.0,16.0,67,0.00,,,0.00,Weather View 32 v70,2013-12-04 00:53:00,
2013-12-03 14:58:00,75.3,63.5,29.88,NW,326,6.0,15.0,67,0.00,,,0.00,Weather View 32 v70,2013-12-04 00:58:00,
2013-12-03 15:03:00,75.2,63.9,29.88,NNW,342,9.0,14.0,68,0.00,,,0.00,Weather View 32 v70,2013-12-04 01:03:00,
2013-12-03 15:05:00,75.2,63.9,29.88,North,3,5.0,14.0,68,0.00,,,0.00,Weather View 32 v70,2013-12-04 01:05:00,
2013-12-03 15:09:00,75.2,63.9,29.88,North,357,5.0,14.0,68,0.00,,,0.00,Weather View 32 v70,2013-12-04 01:09:00,
2013-12-03 15:10:00,75.2,63.9,29.88,North,5,5.0,14.0,68,0.00,,,0.00,Weather View 32 v70,2013-12-04 01:10:00,
2013-12-03 15:15:00,75.2,63.9,29.88,North,9,4.0,14.0,68,0.00,,,0.00,Weather View 32 v70,2013-12-04 01:15:00,
2013-12-03 15:21:00,75.1,63.8,29.88,North,6,4.0,14.0,68,0.00,,,0.00,Weather View 32 v70,2013-12-04 01:21:00,
2013-12-03 15:26:00,75.1,64.2,29.88,North,11,5.0,14.0,69,0.00,,,0.00,Weather View 32 v70,2013-12-04 01:26:00,
2013-12-03 15:32:00,75.2,64.3,29.88,North,4,4.0,14.0,69,0.00,,,0.00,Weather View 32 v70,2013-12-04 01:32:00,
2013-12-03 15:35:00,75.3,64.8,29.88,NNE,24,6.0,14.0,70,0.00,,,0.00,Weather View 32 v70,2013-12-04 01:35:00,
2013-12-03 15:38:00,75.2,64.7,29.88,North,360,8.0,13.0,70,0.00,,,0.00,Weather View 32 v70,2013-12-04 01:38:00,
2013-12-03 15:44:00,75.2,64.7,29.88,NNE,18,11.0,13.0,70,0.00,,,0.00,Weather View 32 v70,2013-12-04 01:44:00,
2013-12-03 15:50:00,75.0,64.5,29.88,NNE,14,10.0,12.0,70,0.00,,,0.00,Weather View 32 v70,2013-12-04 01:50:00,
2013-12-03 15:51:00,75.0,64.5,29.88,North,6,8.0,12.0,70,0.00,,,0.00,Weather View 32 v70,2013-12-04 01:51:00,
2013-12-03 15:56:00,74.9,64.4,29.88,North,3,9.0,12.0,70,0.00,,,0.00,Weather View 32 v70,2013-12-04 01:56:00,
2013-12-03 16:03:00,74.8,64.7,29.88,NNE,21,9.0,12.0,71,0.00,,,0.00,Weather View 32 v70,2013-12-04 02:03:00,
2013-12-03 16:08:00,74.5,64.8,29.89,North,357,8.0,12.0,72,0.00,,,0.00,Weather View 32 v70,2013-12-04 02:08:00,
2013-12-03 16:10:00,74.5,64.8,29.89,North,6,10.0,12.0,72,0.00,,,0.00,Weather View 32 v70,2013-12-04 02:10:00,
2013-12-03 16:15:00,74.4,64.7,29.89,North,356,6.0,12.0,72,0.00,,,0.00,Weather View 32 v70,2013-12-04 02:15:00,
2013-12-03 16:23:00,74.3,65.1,29.89,North,8,6.0,12.0,73,0.00,,,0.00,Weather View 32 v70,2013-12-04 02:23:00,
2013-12-03 16:28:00,74.1,64.9,29.89,NNW,347,2.0,12.0,73,0.00,,,0.00,Weather View 32 v70,2013-12-04 02:28:00,
2013-12-03 16:33:00,74.0,64.8,29.89,NW,314,1.0,12.0,73,0.00,,,0.00,Weather View 32 v70,2013-12-04 02:33:00,
2013-12-03 16:38:00,74.1,64.9,29.89,NW,316,3.0,12.0,73,0.00,,,0.00,Weather View 32 v70,2013-12-04 02:38:00,
2013-12-03 16:40:00,74.3,64.7,29.89,NW,307,4.0,12.0,72,0.00,,,0.00,Weather View 32 v70,2013-12-04 02:40:00,
2013-12-03 16:45:00,74.5,64.8,29.90,NNW,335,1.0,12.0,72,0.00,,,0.00,Weather View 32 v70,2013-12-04 02:45:00,
2013-12-03 16:50:00,74.4,64.7,29.90,NNW,334,0.0,12.0,72,0.00,,,0.00,Weather View 32 v70,2013-12-04 02:50:00,
2013-12-03 16:55:00,74.3,65.1,29.90,NNW,334,0.0,12.0,73,0.00,,,0.00,Weather View 32 v70,2013-12-04 02:55:00,
2013-12-03 17:00:00,74.2,65.0,29.90,NNW,335,0.0,12.0,73,0.00,,,0.00,Weather View 32 v70,2013-12-04 03:00:00,
2013-12-03 17:05:00,74.1,64.9,29.90,NNW,334,1.0,10.0,73,0.00,,,0.00,Weather View 32 v70,2013-12-04 03:05:00,
2013-12-03 17:10:00,73.7,64.9,29.91,NNW,331,3.0,10.0,74,0.00,,,0.00,Weather View 32 v70,2013-12-04 03:10:00,
2013-12-03 17:15:00,73.5,64.7,29.91,NW,315,4.0,7.0,74,0.00,,,0.00,Weather View 32 v70,2013-12-04 03:15:00,
2013-12-03 17:20:00,73.3,64.9,29.91,NW,316,4.0,7.0,75,0.00,,,0.00,Weather View 32 v70,2013-12-04 03:20:00,
2013-12-03 17:25:00,73.3,64.9,29.91,NNW,328,5.0,7.0,75,0.00,,,0.00,Weather View 32 v70,2013-12-04 03:25:00,
2013-12-03 17:30:00,73.2,64.8,29.92,NNW,328,6.0,7.0,75,0.00,,,0.00,Weather View 32 v70,2013-12-04 03:30:00,
2013-12-03 17:35:00,73.2,64.4,29.92,NNW,327,5.0,9.0,74,0.00,,,0.00,Weather View 32 v70,2013-12-04 03:35:00,
2013-12-03 17:40:00,73.3,64.5,29.92,NW,306,7.0,10.0,74,0.00,,,0.00,Weather View 32 v70,2013-12-04 03:40:00,
2013-12-03 17:45:00,73.2,64.4,29.92,NNW,332,9.0,11.0,74,0.00,,,0.00,Weather View 32 v70,2013-12-04 03:45:00,
2013-12-03 17:51:00,73.3,64.5,29.92,NNW,333,8.0,11.0,74,0.00,,,0.00,Weather View 32 v70,2013-12-04 03:51:00,
2013-12-03 17:56:00,73.2,64.4,29.93,NW,324,7.0,11.0,74,0.00,,,0.00,Weather View 32 v70,2013-12-04 03:56:00,
2013-12-03 18:01:00,73.1,64.3,29.92,NW,313,5.0,11.0,74,0.00,,,0.00,Weather View 32 v70,2013-12-04 04:01:00,
2013-12-03 18:06:00,72.8,64.0,29.92,West,269,4.0,11.0,74,0.00,,,0.00,Weather View 32 v70,2013-12-04 04:06:00,
2013-12-03 18:11:00,72.6,64.2,29.93,WNW,303,2.0,11.0,75,0.00,,,0.00,Weather View 32 v70,2013-12-04 04:11:00,
2013-12-03 18:16:00,72.8,64.4,29.93,WNW,303,1.0,11.0,75,0.00,,,0.00,Weather View 32 v70,2013-12-04 04:16:00,
2013-12-03 18:21:00,72.9,64.5,29.93,West,259,3.0,11.0,75,0.00,,,0.00,Weather View 32 v70,2013-12-04 04:21:00,
2013-12-03 18:26:00,73.3,64.9,29.93,SW,220,5.0,11.0,75,0.00,,,0.00,Weather View 32 v70,2013-12-04 04:26:00,
2013-12-03 18:31:00,73.4,64.6,29.94,West,277,2.0,11.0,74,0.00,,,0.00,Weather View 32 v70,2013-12-04 04:31:00,
2013-12-03 18:36:00,73.3,64.5,29.94,WNW,297,3.0,11.0,74,0.00,,,0.00,Weather View 32 v70,2013-12-04 04:36:00,
2013-12-03 18:41:00,73.2,64.4,29.94,NW,309,0.0,11.0,74,0.00,,,0.00,Weather View 32 v70,2013-12-04 04:41:00,
2013-12-03 18:46:00,73.1,64.3,29.94,NW,309,0.0,11.0,74,0.00,,,0.00,Weather View 32 v70,2013-12-04 04:46:00,
2013-12-03 18:51:00,73.1,64.7,29.95,NW,309,0.0,10.0,75,0.00,,,0.00,Weather View 32 v70,2013-12-04 04:51:00,
2013-12-03 18:56:00,73.1,64.7,29.95,NW,309,0.0,10.0,75,0.00,,,0.00,Weather View 32 v70,2013-12-04 04:56:00,
2013-12-03 19:01:00,73.1,64.7,29.95,NW,309,0.0,7.0,75,0.00,,,0.00,Weather View 32 v70,2013-12-04 05:01:00,
2013-12-03 19:06:00,73.2,64.4,29.95,West,278,4.0,6.0,74,0.00,,,0.00,Weather View 32 v70,2013-12-04 05:06:00,
2013-12-03 19:11:00,73.1,63.9,29.95,West,278,6.0,6.0,73,0.00,,,0.00,Weather View 32 v70,2013-12-04 05:11:00,
2013-12-03 19:16:00,73.0,63.0,29.95,West,281,6.0,6.0,71,0.00,,,0.00,Weather View 32 v70,2013-12-04 05:16:00,
2013-12-03 19:21:00,73.2,62.8,29.95,WNW,301,5.0,7.0,70,0.00,,,0.00,Weather View 32 v70,2013-12-04 05:21:00,
2013-12-03 19:26:00,73.4,62.6,29.95,WNW,294,3.0,7.0,69,0.00,,,0.00,Weather View 32 v70,2013-12-04 05:26:00,
2013-12-03 19:31:00,73.4,62.6,29.96,WNW,292,0.0,7.0,69,0.00,,,0.00,Weather View 32 v70,2013-12-04 05:31:00,
2013-12-03 19:36:00,73.5,62.7,29.96,WNW,293,0.0,7.0,69,0.00,,,0.00,Weather View 32 v70,2013-12-04 05:36:00,
2013-12-03 19:41:00,73.2,62.4,29.96,NNW,345,0.0,7.0,69,0.00,,,0.00,Weather View 32 v70,2013-12-04 05:41:00,
2013-12-03 19:46:00,72.9,62.5,29.97,NNW,345,0.0,7.0,70,0.00,,,0.00,Weather View 32 v70,2013-12-04 05:46:00,
2013-12-03 19:51:00,72.7,62.7,29.97,NNW,345,2.0,7.0,71,0.00,,,0.00,Weather View 32 v70,2013-12-04 05:51:00,
2013-12-03 19:56:00,72.5,62.9,29.97,NNW,341,1.0,7.0,72,0.00,,,0.00,Weather View 32 v70,2013-12-04 05:56:00,
2013-12-03 20:01:00,72.5,62.9,29.97,NW,320,3.0,7.0,72,0.00,,,0.00,Weather View 32 v70,2013-12-04 06:01:00,
2013-12-03 20:06:00,72.5,63.3,29.97,NW,320,2.0,7.0,73,0.00,,,0.00,Weather View 32 v70,2013-12-04 06:06:00,
2013-12-03 20:11:00,72.6,63.8,29.97,NW,320,0.0,7.0,74,0.00,,,0.00,Weather View 32 v70,2013-12-04 06:11:00,
2013-12-03 20:16:00,72.5,63.7,29.97,NW,320,3.0,7.0,74,0.00,,,0.00,Weather View 32 v70,2013-12-04 06:16:00,
2013-12-03 20:22:00,72.4,63.6,29.97,West,275,4.0,6.0,74,0.00,,,0.00,Weather View 32 v70,2013-12-04 06:22:00,
2013-12-03 20:27:00,72.2,63.4,29.97,West,280,5.0,6.0,74,0.00,,,0.00,Weather View 32 v70,2013-12-04 06:27:00,
2013-12-03 20:32:00,72.2,63.4,29.98,WNW,283,4.0,6.0,74,0.00,,,0.00,Weather View 32 v70,2013-12-04 06:32:00,
2013-12-03 20:37:00,72.2,63.8,29.98,WNW,283,1.0,6.0,75,0.00,,,0.00,Weather View 32 v70,2013-12-04 06:37:00,
2013-12-03 20:42:00,72.5,64.1,29.97,WNW,283,1.0,6.0,75,0.00,,,0.00,Weather View 32 v70,2013-12-04 06:42:00,
2013-12-03 20:47:00,72.7,64.3,29.97,WNW,283,0.0,6.0,75,0.00,,,0.00,Weather View 32 v70,2013-12-04 06:47:00,
2013-12-03 20:52:00,72.8,64.4,29.98,WNW,283,2.0,6.0,75,0.00,,,0.00,Weather View 32 v70,2013-12-04 06:52:00,
2013-12-03 20:57:00,72.9,64.1,29.97,SSW,201,3.0,6.0,74,0.00,,,0.00,Weather View 32 v70,2013-12-04 06:57:00,
2013-12-03 21:02:00,73.0,64.2,29.98,SSW,203,3.0,6.0,74,0.00,,,0.00,Weather View 32 v70,2013-12-04 07:02:00,
2013-12-03 21:07:00,73.0,64.2,29.98,SSW,193,2.0,6.0,74,0.00,,,0.00,Weather View 32 v70,2013-12-04 07:07:00,
2013-12-03 21:12:00,72.9,64.1,29.98,South,176,1.0,6.0,74,0.00,,,0.00,Weather View 32 v70,2013-12-04 07:12:00,
2013-12-03 21:17:00,72.6,64.2,29.98,SSW,194,2.0,6.0,75,0.00,,,0.00,Weather View 32 v70,2013-12-04 07:17:00,
2013-12-03 21:22:00,72.4,64.0,29.98,SSW,201,0.0,6.0,75,0.00,,,0.00,Weather View 32 v70,2013-12-04 07:22:00,
2013-12-03 21:27:00,72.0,63.6,29.99,ENE,71,0.0,5.0,75,0.00,,,0.00,Weather View 32 v70,2013-12-04 07:27:00,
2013-12-03 21:32:00,71.3,63.3,29.99,WNW,287,6.0,7.0,76,0.00,,,0.00,Weather View 32 v70,2013-12-04 07:32:00,
2013-12-03 21:37:00,70.9,63.3,29.99,WNW,290,4.0,7.0,77,0.00,,,0.00,Weather View 32 v70,2013-12-04 07:37:00,
2013-12-03 21:42:00,71.0,63.8,29.99,West,268,5.0,7.0,78,0.00,,,0.00,Weather View 32 v70,2013-12-04 07:42:00,
2013-12-03 21:47:00,71.1,63.9,29.99,NW,305,5.0,7.0,78,0.00,,,0.00,Weather View 32 v70,2013-12-04 07:47:00,
2013-12-03 21:52:00,71.2,64.0,29.99,West,279,4.0,7.0,78,0.00,,,0.00,Weather View 32 v70,2013-12-04 07:52:00,
2013-12-03 21:57:00,71.2,64.0,29.99,WNW,287,3.0,7.0,78,0.00,,,0.00,Weather View 32 v70,2013-12-04 07:57:00,
2013-12-03 22:02:00,71.3,64.1,29.99,NW,305,2.0,7.0,78,0.00,,,0.00,Weather View 32 v70,2013-12-04 08:02:00,
2013-12-03 22:07:00,71.3,63.7,30.00,WNW,297,2.0,7.0,77,0.00,,,0.00,Weather View 32 v70,2013-12-04 08:07:00,
2013-12-03 22:12:00,71.3,63.7,30.00,WNW,297,0.0,7.0,77,0.00,,,0.00,Weather View 32 v70,2013-12-04 08:12:00,
2013-12-03 22:17:00,71.4,63.8,30.00,WNW,297,0.0,7.0,77,0.00,,,0.00,Weather View 32 v70,2013-12-04 08:17:00,
2013-12-03 22:22:00,71.4,63.8,30.00,WNW,297,4.0,7.0,77,0.00,,,0.00,Weather View 32 v70,2013-12-04 08:22:00,
2013-12-03 22:27:00,71.3,63.7,30.00,WNW,303,0.0,7.0,77,0.00,,,0.00,Weather View 32 v70,2013-12-04 08:27:00,
2013-12-03 22:32:00,71.3,63.7,29.99,SW,226,4.0,7.0,77,0.00,,,0.00,Weather View 32 v70,2013-12-04 08:32:00,
2013-12-03 22:37:00,71.6,64.0,30.00,SW,235,3.0,7.0,77,0.00,,,0.00,Weather View 32 v70,2013-12-04 08:37:00,
2013-12-03 22:42:00,71.8,63.8,29.99,WSW,245,0.0,7.0,76,0.00,,,0.00,Weather View 32 v70,2013-12-04 08:42:00,
2013-12-03 22:47:00,71.9,63.5,29.99,WSW,251,0.0,6.0,75,0.00,,,0.00,Weather View 32 v70,2013-12-04 08:47:00,
2013-12-03 22:52:00,72.1,62.9,30.00,NW,304,0.0,5.0,73,0.00,,,0.00,Weather View 32 v70,2013-12-04 08:52:00,
2013-12-03 22:57:00,72.0,62.4,30.00,NE,37,5.0,5.0,72,0.00,,,0.00,Weather View 32 v70,2013-12-04 08:57:00,
2013-12-03 23:02:00,72.3,63.1,30.00,South,181,5.0,7.0,73,0.00,,,0.00,Weather View 32 v70,2013-12-04 09:02:00,
2013-12-03 23:07:00,72.4,63.2,30.00,SSW,203,3.0,7.0,73,0.00,,,0.00,Weather View 32 v70,2013-12-04 09:07:00,
2013-12-03 23:12:00,72.2,63.0,30.00,SW,215,2.0,7.0,73,0.00,,,0.00,Weather View 32 v70,2013-12-04 09:12:00,
2013-12-03 23:17:00,72.1,62.5,30.00,WNW,282,2.0,7.0,72,0.00,,,0.00,Weather View 32 v70,2013-12-04 09:17:00,
2013-12-03 23:22:00,71.8,62.6,30.00,West,259,3.0,7.0,73,0.00,,,0.00,Weather View 32 v70,2013-12-04 09:22:00,
2013-12-03 23:27:00,71.9,62.7,30.00,West,259,2.0,7.0,73,0.00,,,0.00,Weather View 32 v70,2013-12-04 09:27:00,
2013-12-03 23:32:00,71.9,62.4,30.00,WNW,285,5.0,7.0,72,0.00,,,0.00,Weather View 32 v70,2013-12-04 09:32:00,
2013-12-03 23:37:00,71.9,61.5,30.00,WNW,300,6.0,8.0,70,0.00,,,0.00,Weather View 32 v70,2013-12-04 09:37:00,
2013-12-03 23:42:00,72.2,61.4,30.00,NW,305,6.0,8.0,69,0.00,,,0.00,Weather View 32 v70,2013-12-04 09:42:00,
2013-12-03 23:47:00,72.6,61.4,30.00,NW,305,7.0,8.0,68,0.00,,,0.00,Weather View 32 v70,2013-12-04 09:47:00,
2013-12-03 23:52:00,73.0,61.4,30.00,NW,313,7.0,8.0,67,0.00,,,0.00,Weather View 32 v70,2013-12-04 09:52:00,
2013-12-03 23:57:00,73.0,61.4,30.00,NW,315,4.0,8.0,67,0.00,,,0.00,Weather View 32 v70,2013-12-04 09:57:00,